createdAt,value
2018-06-05T00:00:28.108Z,57.20
2018-06-05T00:02:55.806Z,57.00
2018-06-05T00:05:23.514Z,57.10
2018-06-05T00:10:19.034Z,58.40
2018-06-05T00:12:46.756Z,58.70
2018-06-05T00:15:14.461Z,57.80
2018-06-05T00:17:42.164Z,57.90
2018-06-05T00:22:37.560Z,58.30
2018-06-05T00:25:05.281Z,57.80
2018-06-05T00:27:33.551Z,58.60
2018-06-05T00:30:01.285Z,58.50
2018-06-05T00:32:28.989Z,58.40
2018-06-05T00:34:56.697Z,58.40
2018-06-05T00:37:24.384Z,58.30
2018-06-05T00:39:52.065Z,57.10
2018-06-05T00:44:47.515Z,57.80
2018-06-05T00:47:16.627Z,57.80
2018-06-05T00:49:44.315Z,56.90
2018-06-05T00:52:12.015Z,56.60
2018-06-05T00:54:39.717Z,57.40
2018-06-05T00:57:07.443Z,58.00
2018-06-05T00:59:35.141Z,59.10
2018-06-05T01:02:02.892Z,59.20
2018-06-05T01:04:30.608Z,58.40
2018-06-05T01:06:58.301Z,58.30
2018-06-05T01:09:26.003Z,58.40
2018-06-05T01:11:53.697Z,58.90
2018-06-05T01:14:21.445Z,59.20
2018-06-05T01:16:49.185Z,58.80
2018-06-05T01:19:16.905Z,58.30
2018-06-05T01:21:44.638Z,58.00
2018-06-05T01:24:12.461Z,58.30
2018-06-05T01:26:40.168Z,57.60
2018-06-05T01:29:07.923Z,57.50
2018-06-05T01:31:35.670Z,57.50
2018-06-05T01:34:03.529Z,56.80
2018-06-05T01:36:31.252Z,56.30
2018-06-05T01:38:58.979Z,56.10
2018-06-05T01:41:26.685Z,55.40
2018-06-05T01:43:54.395Z,55.10
2018-06-05T01:46:22.093Z,55.50
2018-06-05T01:48:49.778Z,56.40
2018-06-05T01:51:17.494Z,56.60
2018-06-05T01:56:12.929Z,56.60
2018-06-05T01:58:40.791Z,56.70
2018-06-05T02:01:08.509Z,56.60
2018-06-05T02:03:36.206Z,56.70
2018-06-05T02:06:03.991Z,56.60
2018-06-05T02:08:31.692Z,56.40
2018-06-05T02:10:59.387Z,56.40
2018-06-05T02:13:27.127Z,56.30
2018-06-05T02:15:54.888Z,56.70
2018-06-05T02:18:22.639Z,56.40
2018-06-05T02:20:50.665Z,56.70
2018-06-05T02:23:18.375Z,56.40
2018-06-05T02:28:13.864Z,56.60
2018-06-05T02:30:41.593Z,56.20
2018-06-05T02:33:09.301Z,55.60
2018-06-05T02:35:37.006Z,56.00
2018-06-05T02:38:04.740Z,55.00
2018-06-05T02:40:32.491Z,54.60
2018-06-05T02:43:00.190Z,54.70
2018-06-05T02:45:27.922Z,54.10
2018-06-05T02:47:55.655Z,53.70
2018-06-05T02:50:23.348Z,54.60
2018-06-05T02:52:51.057Z,54.50
2018-06-05T02:55:18.775Z,54.10
2018-06-05T02:57:47.213Z,54.10
2018-06-05T03:00:14.979Z,54.40
2018-06-05T03:02:43.044Z,54.40
2018-06-05T03:05:10.872Z,54.50
2018-06-05T03:07:38.632Z,54.40
2018-06-05T03:10:06.367Z,54.40
2018-06-05T03:12:34.139Z,54.60
2018-06-05T03:15:01.883Z,54.90
2018-06-05T03:17:29.724Z,54.90
2018-06-05T03:19:57.954Z,55.00
2018-06-05T03:22:25.664Z,55.10
2018-06-05T03:24:53.382Z,54.80
2018-06-05T03:27:21.107Z,54.90
2018-06-05T03:29:48.866Z,54.90
2018-06-05T03:32:16.630Z,55.40
2018-06-05T03:34:44.349Z,55.60
2018-06-05T03:37:13.072Z,55.40
2018-06-05T03:39:40.807Z,55.00
2018-06-05T03:42:08.619Z,55.40
2018-06-05T03:47:04.109Z,55.60
2018-06-05T03:52:05.325Z,55.20
2018-06-05T03:54:34.151Z,54.90
2018-06-05T03:57:01.866Z,55.30
2018-06-05T03:59:29.654Z,55.40
2018-06-05T04:01:57.398Z,55.70
2018-06-05T04:04:25.373Z,55.50
2018-06-05T04:06:53.067Z,55.00
2018-06-05T04:09:20.798Z,54.90
2018-06-05T04:11:49.241Z,54.70
2018-06-05T04:14:16.998Z,54.60
2018-06-05T04:16:44.772Z,54.00
2018-06-05T04:19:12.492Z,54.30
2018-06-05T04:21:40.210Z,52.90
2018-06-05T04:24:07.998Z,52.40
2018-06-05T04:26:35.705Z,52.70
2018-06-05T04:29:03.395Z,52.80
2018-06-05T04:31:31.090Z,52.50
2018-06-05T04:33:58.852Z,52.10
2018-06-05T04:36:26.531Z,52.20
2018-06-05T04:38:54.256Z,52.70
2018-06-05T04:41:21.991Z,52.20
2018-06-05T04:43:50.599Z,52.20
2018-06-05T04:46:18.445Z,52.10
2018-06-05T04:48:46.239Z,51.70
2018-06-05T04:51:13.942Z,51.10
2018-06-05T04:53:42.010Z,51.20
2018-06-05T05:01:07.274Z,51.90
2018-06-05T05:03:35.245Z,52.20
2018-06-05T05:06:03.734Z,52.40
2018-06-05T05:08:31.848Z,52.40
2018-06-05T05:11:02.139Z,52.60
2018-06-05T05:13:29.965Z,52.60
2018-06-05T05:15:57.711Z,52.60
2018-06-05T05:18:25.442Z,52.40
2018-06-05T05:20:53.173Z,52.40
2018-06-05T05:23:21.040Z,52.50
2018-06-05T05:25:48.788Z,52.80
2018-06-05T05:28:16.562Z,53.10
2018-06-05T05:30:44.281Z,53.10
2018-06-05T05:33:12.043Z,52.90
2018-06-05T05:35:39.851Z,52.60
2018-06-05T05:38:07.616Z,52.70
2018-06-05T05:40:35.377Z,52.70
2018-06-05T05:43:03.537Z,52.50
2018-06-05T05:45:31.299Z,52.40
2018-06-05T05:47:59.422Z,52.30
2018-06-05T05:50:27.649Z,52.60
2018-06-05T05:52:55.419Z,52.60
2018-06-05T05:55:24.210Z,52.70
2018-06-05T05:57:51.924Z,53.10
2018-06-05T06:00:19.657Z,53.10
2018-06-05T06:02:47.435Z,53.10
2018-06-05T06:05:15.199Z,52.70
2018-06-05T06:07:42.953Z,52.70
2018-06-05T06:10:11.028Z,52.90
2018-06-05T06:15:06.573Z,53.10
2018-06-05T06:17:34.320Z,52.40
2018-06-05T06:20:02.119Z,52.30
2018-06-05T06:22:29.931Z,52.50
2018-06-05T06:24:57.729Z,52.10
2018-06-05T06:27:25.483Z,51.50
2018-06-05T06:29:53.247Z,51.10
2018-06-05T06:32:21.027Z,51.50
2018-06-05T06:34:48.800Z,51.00
2018-06-05T06:37:16.541Z,50.00
2018-06-05T06:39:44.298Z,50.30
2018-06-05T06:42:12.107Z,50.00
2018-06-05T06:44:39.856Z,50.20
2018-06-05T06:47:07.708Z,49.90
2018-06-05T06:49:35.511Z,49.70
2018-06-05T06:52:03.302Z,50.40
2018-06-05T06:54:31.129Z,49.60
2018-06-05T06:56:58.838Z,51.30
2018-06-05T07:01:54.431Z,50.50
2018-06-05T07:04:22.178Z,50.60
2018-06-05T07:06:50.328Z,50.60
2018-06-05T07:09:18.073Z,50.90
2018-06-05T07:11:45.870Z,51.00
2018-06-05T07:14:13.673Z,51.50
2018-06-05T07:16:41.777Z,50.80
2018-06-05T07:19:09.610Z,50.80
2018-06-05T07:21:37.433Z,50.60
2018-06-05T07:24:05.328Z,50.60
2018-06-05T07:26:33.145Z,51.00
2018-06-05T07:29:00.891Z,51.10
2018-06-05T07:31:28.718Z,50.60
2018-06-05T07:33:56.514Z,50.20
2018-06-05T07:36:24.505Z,50.70
2018-06-05T07:38:52.305Z,50.40
2018-06-05T07:41:20.048Z,50.30
2018-06-05T07:43:48.117Z,51.00
2018-06-05T07:46:15.888Z,51.00
2018-06-05T07:48:43.781Z,50.30
2018-06-05T07:51:12.444Z,50.40
2018-06-05T07:53:40.381Z,51.50
2018-06-05T07:56:08.171Z,51.70
2018-06-05T07:58:35.962Z,52.50
2018-06-05T08:01:03.879Z,51.10
2018-06-05T08:03:31.938Z,51.10
2018-06-05T08:06:01.346Z,50.80
2018-06-05T08:08:30.099Z,51.00
2018-06-05T08:10:57.920Z,51.00
2018-06-05T08:13:25.946Z,51.50
2018-06-05T08:15:53.754Z,51.20
2018-06-05T08:18:22.241Z,51.10
2018-06-05T08:20:50.092Z,51.10
2018-06-05T08:23:17.897Z,51.10
2018-06-05T08:25:45.660Z,50.90
2018-06-05T08:28:13.415Z,51.30
2018-06-05T08:30:41.229Z,51.10
2018-06-05T08:33:09.071Z,50.50
2018-06-05T08:35:36.893Z,50.60
2018-06-05T08:38:04.738Z,50.10
2018-06-05T08:40:32.604Z,50.00
2018-06-05T08:43:00.442Z,50.80
2018-06-05T08:45:28.236Z,50.80
2018-06-05T08:47:56.048Z,51.50
2018-06-05T08:50:23.922Z,50.30
2018-06-05T08:52:52.081Z,50.30
2018-06-05T08:55:19.872Z,49.80
2018-06-05T08:57:47.860Z,50.50
2018-06-05T09:00:15.960Z,52.10
2018-06-05T09:02:43.780Z,52.30
2018-06-05T09:05:12.361Z,52.30
2018-06-05T09:07:40.217Z,52.60
2018-06-05T09:10:08.070Z,52.50
2018-06-05T09:12:35.832Z,53.30
2018-06-05T09:15:03.795Z,52.10
2018-06-05T09:17:32.110Z,52.20
2018-06-05T09:22:28.246Z,51.10
2018-06-05T09:24:56.307Z,50.90
2018-06-05T09:27:24.150Z,51.10
2018-06-05T09:29:51.936Z,51.90
2018-06-05T09:32:20.307Z,52.20
2018-06-05T09:34:48.102Z,52.20
2018-06-05T09:37:15.854Z,51.30
2018-06-05T09:39:44.039Z,51.30
2018-06-05T09:42:11.878Z,50.80
2018-06-05T09:44:39.944Z,50.60
2018-06-05T09:47:07.961Z,50.30
2018-06-05T09:49:35.986Z,49.70
2018-06-05T09:52:03.783Z,49.20
2018-06-05T09:54:31.553Z,48.70
2018-06-05T09:56:59.367Z,48.30
2018-06-05T10:01:55.904Z,48.50
2018-06-05T10:04:23.658Z,48.40
2018-06-05T10:06:51.503Z,48.50
2018-06-05T10:09:19.225Z,48.10
2018-06-05T10:11:47.047Z,48.10
2018-06-05T10:14:14.918Z,47.80
2018-06-05T10:16:42.724Z,47.80
2018-06-05T10:19:10.559Z,48.50
2018-06-05T10:21:38.421Z,48.30
2018-06-05T10:24:06.284Z,48.20
2018-06-05T10:26:34.080Z,49.00
2018-06-05T10:29:01.859Z,49.30
2018-06-05T10:31:29.667Z,49.20
2018-06-05T10:33:58.393Z,49.40
2018-06-05T10:36:26.515Z,48.20
2018-06-05T10:38:54.289Z,48.00
2018-06-05T10:41:22.408Z,47.80
2018-06-05T10:43:50.844Z,47.90
2018-06-05T10:48:46.509Z,47.80
2018-06-05T10:53:42.810Z,47.60
2018-06-05T10:56:10.887Z,47.60
2018-06-05T10:58:39.345Z,47.60
2018-06-05T11:01:07.809Z,47.60
2018-06-05T11:06:04.059Z,46.30
2018-06-05T11:08:31.881Z,45.30
2018-06-05T11:11:00.506Z,44.50
2018-06-05T11:13:28.554Z,44.20
2018-06-05T11:15:57.319Z,44.20
2018-06-05T11:18:25.238Z,45.20
2018-06-05T11:20:53.126Z,44.10
2018-06-05T11:23:21.253Z,44.60
2018-06-05T11:25:49.342Z,44.70
2018-06-05T11:28:17.840Z,44.10
2018-06-05T11:30:45.703Z,44.30
2018-06-05T11:33:13.506Z,43.80
2018-06-05T11:35:41.332Z,43.60
2018-06-05T11:38:09.116Z,43.90
2018-06-05T11:40:36.943Z,43.30
2018-06-05T11:43:04.713Z,43.50
2018-06-05T11:45:32.433Z,43.40
2018-06-05T11:48:00.088Z,42.80
2018-06-05T11:50:27.796Z,42.80
2018-06-05T11:55:23.187Z,40.70
2018-06-05T11:57:50.901Z,40.10
2018-06-05T12:00:19.599Z,39.00
2018-06-05T12:05:15.036Z,38.40
2018-06-05T12:07:42.733Z,36.90
2018-06-05T12:10:10.413Z,36.30
2018-06-05T12:12:38.086Z,35.50
2018-06-05T12:15:05.767Z,35.50
2018-06-05T12:17:33.471Z,36.30
2018-06-05T12:20:01.158Z,35.90
2018-06-05T12:22:29.516Z,36.00
2018-06-05T12:27:24.948Z,34.50
2018-06-05T12:29:52.627Z,33.60
2018-06-05T12:32:20.341Z,34.00
2018-06-05T12:34:47.997Z,33.40
2018-06-05T12:37:15.739Z,32.70
2018-06-05T12:39:43.364Z,32.10
2018-06-05T12:42:11.081Z,31.90
2018-06-05T12:44:38.800Z,30.30
2018-06-05T12:47:06.493Z,30.00
2018-06-05T12:52:01.897Z,30.90
2018-06-05T12:54:29.631Z,30.30
2018-06-05T12:56:57.331Z,30.30
2018-06-05T12:59:25.051Z,31.10
2018-06-05T13:01:52.747Z,32.00
2018-06-05T13:04:20.451Z,30.50
2018-06-05T13:06:48.135Z,31.40
2018-06-05T13:11:43.536Z,29.90
2018-06-05T13:14:11.203Z,30.00
2018-06-05T13:16:38.882Z,29.30
2018-06-05T13:19:06.542Z,28.70
2018-06-05T13:21:34.226Z,28.80
2018-06-05T13:24:01.944Z,28.90
2018-06-05T13:26:29.628Z,28.00
2018-06-05T13:28:57.290Z,28.30
2018-06-05T13:31:24.959Z,27.60
2018-06-05T13:33:52.617Z,28.30
2018-06-05T13:36:20.270Z,27.70
2018-06-05T13:38:47.958Z,27.80
2018-06-05T13:41:15.959Z,27.20
2018-06-05T13:43:43.649Z,26.90
2018-06-05T13:46:11.314Z,26.80
2018-06-05T13:48:39.009Z,27.40
2018-06-05T13:51:06.704Z,27.40
2018-06-05T13:53:34.366Z,27.70
2018-06-05T13:56:02.030Z,27.20
2018-06-05T13:58:29.715Z,26.90
2018-06-05T14:00:57.366Z,26.90
2018-06-05T14:03:25.082Z,27.40
2018-06-05T14:05:52.757Z,26.90
2018-06-05T14:10:48.145Z,26.40
2018-06-05T14:13:15.858Z,26.70
2018-06-05T14:15:43.548Z,26.20
2018-06-05T14:18:11.245Z,26.00
2018-06-05T14:20:38.909Z,25.60
2018-06-05T14:23:06.616Z,25.50
2018-06-05T14:25:34.294Z,25.30
2018-06-05T14:28:01.971Z,26.50
2018-06-05T14:30:29.700Z,25.30
2018-06-05T14:32:57.385Z,25.80
2018-06-05T14:37:53.112Z,25.50
2018-06-05T14:40:20.797Z,26.10
2018-06-05T14:42:49.142Z,26.10
2018-06-05T14:45:17.024Z,26.00
2018-06-05T14:47:44.533Z,25.90
2018-06-05T14:50:12.209Z,26.10
2018-06-05T14:52:39.972Z,25.20
2018-06-05T14:55:07.639Z,24.90
2018-06-05T14:57:36.027Z,24.90
2018-06-05T15:00:03.956Z,24.90
2018-06-05T15:02:31.622Z,25.50
2018-06-05T15:05:00.143Z,25.30
2018-06-05T15:07:27.978Z,25.70
2018-06-05T15:09:55.664Z,24.40
2018-06-05T15:12:23.373Z,24.80
2018-06-05T15:14:51.078Z,24.30
2018-06-05T15:17:18.806Z,24.00
2018-06-05T15:19:46.539Z,24.10
2018-06-05T15:22:14.187Z,23.90
2018-06-05T15:24:41.958Z,24.00
2018-06-05T15:27:09.622Z,23.60
2018-06-05T15:29:37.265Z,23.00
2018-06-05T15:32:05.335Z,23.50
2018-06-05T15:34:33.028Z,23.40
2018-06-05T15:37:00.722Z,23.70
2018-06-05T15:39:28.387Z,24.10
2018-06-05T15:41:56.063Z,24.30
2018-06-05T15:44:23.737Z,24.60
2018-06-05T15:46:51.461Z,24.90
2018-06-05T15:49:19.178Z,24.60
2018-06-05T15:51:46.839Z,23.40
2018-06-05T15:54:14.519Z,23.90
2018-06-05T15:56:42.524Z,23.50
2018-06-05T15:59:10.198Z,23.80
2018-06-05T16:01:37.895Z,23.90
2018-06-05T16:04:05.659Z,24.00
2018-06-05T16:06:33.348Z,23.10
2018-06-05T16:09:01.097Z,23.60
2018-06-05T16:11:28.817Z,23.70
2018-06-05T16:13:56.783Z,22.70
2018-06-05T16:16:24.458Z,22.40
2018-06-05T16:18:52.175Z,22.60
2018-06-05T16:21:19.899Z,22.50
2018-06-05T16:23:47.591Z,21.80
2018-06-05T16:28:43.049Z,22.50
2018-06-05T16:31:10.831Z,22.60
2018-06-05T16:33:38.698Z,22.50
2018-06-05T16:36:06.673Z,21.70
2018-06-05T16:38:34.432Z,22.30
2018-06-05T16:41:02.103Z,22.30
2018-06-05T16:43:29.846Z,22.40
2018-06-05T16:45:57.641Z,21.50
2018-06-05T16:48:25.351Z,21.30
2018-06-05T16:50:53.077Z,21.90
2018-06-05T16:53:20.737Z,21.80
2018-06-05T16:55:48.476Z,21.80
2018-06-05T16:58:16.200Z,21.60
2018-06-05T17:00:43.856Z,21.80
2018-06-05T17:03:11.674Z,22.10
2018-06-05T17:05:39.359Z,22.00
2018-06-05T17:08:07.087Z,22.10
2018-06-05T17:10:34.806Z,21.70
2018-06-05T17:13:02.491Z,21.60
2018-06-05T17:15:30.159Z,21.60
2018-06-05T17:17:57.928Z,21.60
2018-06-05T17:20:25.648Z,21.70
2018-06-05T17:22:53.302Z,21.80
2018-06-05T17:25:20.938Z,21.90
2018-06-05T17:27:48.591Z,21.70
2018-06-05T17:30:16.427Z,21.90
2018-06-05T17:32:44.182Z,21.80
2018-06-05T17:35:11.849Z,22.20
2018-06-05T17:37:39.654Z,22.40
2018-06-05T17:40:07.425Z,22.30
2018-06-05T17:42:35.107Z,22.80
2018-06-05T17:45:03.731Z,22.90
2018-06-05T17:47:31.564Z,22.70
2018-06-05T17:49:59.214Z,23.40
2018-06-05T17:52:26.867Z,23.80
2018-06-05T17:54:54.507Z,24.20
2018-06-05T17:57:22.319Z,24.50
2018-06-05T17:59:49.971Z,24.80
2018-06-05T18:02:17.637Z,25.10
2018-06-05T18:04:45.315Z,25.10
2018-06-05T18:09:40.687Z,25.50
2018-06-05T18:12:08.494Z,25.50
2018-06-05T18:14:36.219Z,25.40
2018-06-05T18:17:04.078Z,26.30
2018-06-05T18:19:31.742Z,26.40
2018-06-05T18:21:59.450Z,26.40
2018-06-05T18:24:27.102Z,26.60
2018-06-05T18:26:54.834Z,26.80
2018-06-05T18:29:23.270Z,26.90
2018-06-05T18:31:51.357Z,27.30
2018-06-05T18:34:19.456Z,27.60
2018-06-05T18:39:15.675Z,28.40
2018-06-05T18:44:11.724Z,28.60
2018-06-05T18:46:39.621Z,28.20
2018-06-05T18:49:07.530Z,28.30
2018-06-05T18:51:35.227Z,28.60
2018-06-05T18:54:02.920Z,28.90
2018-06-05T18:56:30.602Z,29.50
2018-06-05T18:58:58.256Z,29.90
2018-06-05T19:01:25.951Z,31.00
2018-06-05T19:03:54.260Z,30.60
2018-06-05T19:06:21.997Z,31.00
2018-06-05T19:08:49.665Z,31.70
2018-06-05T19:11:17.323Z,31.80
2018-06-05T19:13:45.048Z,32.30
2018-06-05T19:16:12.790Z,32.90
2018-06-05T19:18:40.503Z,32.80
2018-06-05T19:21:08.191Z,33.70
2018-06-05T19:23:35.905Z,34.10
2018-06-05T19:26:03.598Z,34.00
2018-06-05T19:28:31.322Z,34.10
2018-06-05T19:30:59.147Z,34.50
2018-06-05T19:33:26.811Z,35.00
2018-06-05T19:35:54.540Z,35.20
2018-06-05T19:38:22.241Z,35.40
2018-06-05T19:40:49.927Z,35.30
2018-06-05T19:43:17.609Z,35.40
2018-06-05T19:45:45.323Z,35.90
2018-06-05T19:48:12.991Z,36.00
2018-06-05T19:50:42.195Z,36.40
2018-06-05T19:53:09.910Z,36.70
2018-06-05T19:55:37.645Z,36.70
2018-06-05T19:58:05.405Z,38.30
2018-06-05T20:00:33.097Z,37.00
2018-06-05T20:03:00.779Z,37.30
2018-06-05T20:05:28.515Z,37.90
2018-06-05T20:07:56.131Z,38.00
2018-06-05T20:10:23.798Z,37.90
2018-06-05T20:12:51.503Z,38.30
2018-06-05T20:15:19.192Z,38.30
2018-06-05T20:17:46.857Z,38.60
2018-06-05T20:20:14.530Z,38.80
2018-06-05T20:22:43.119Z,39.00
2018-06-05T20:25:10.848Z,39.70
2018-06-05T20:27:38.503Z,40.30
2018-06-05T20:30:06.400Z,41.30
2018-06-05T20:32:34.174Z,41.50
2018-06-05T20:35:01.879Z,42.20
2018-06-05T20:39:57.373Z,43.40
2018-06-05T20:42:25.111Z,44.40
2018-06-05T20:44:53.001Z,44.70
2018-06-05T20:47:20.962Z,45.40
2018-06-05T20:49:48.642Z,45.30
2018-06-05T20:52:16.518Z,45.60
2018-06-05T20:54:44.281Z,46.30
2018-06-05T20:57:12.251Z,46.30
2018-06-05T20:59:40.072Z,46.90
2018-06-05T21:02:07.879Z,47.10
2018-06-05T21:04:35.623Z,47.40
2018-06-05T21:07:03.433Z,47.60
2018-06-05T21:09:31.114Z,47.70
2018-06-05T21:11:58.790Z,47.70
2018-06-05T21:14:26.451Z,48.00
2018-06-05T21:16:54.274Z,48.00
2018-06-05T21:19:21.919Z,48.30
2018-06-05T21:21:49.609Z,48.70
2018-06-05T21:24:17.290Z,48.90
2018-06-05T21:26:44.954Z,49.30
2018-06-05T21:29:12.617Z,49.30
2018-06-05T21:31:40.278Z,49.10
2018-06-05T21:34:07.958Z,49.10
2018-06-05T21:36:36.623Z,49.50
2018-06-05T21:39:08.080Z,50.00
2018-06-05T21:41:35.749Z,50.00
2018-06-05T21:44:03.694Z,50.00
2018-06-05T21:46:31.354Z,50.00
2018-06-05T21:51:26.759Z,50.50
2018-06-05T21:53:54.422Z,51.00
2018-06-05T21:56:22.070Z,51.50
2018-06-05T21:58:49.766Z,51.60
2018-06-05T22:01:17.449Z,51.90
2018-06-05T22:03:45.128Z,52.30
2018-06-05T22:06:17.865Z,52.30
2018-06-05T22:08:45.543Z,52.30
2018-06-05T22:11:13.225Z,52.50
2018-06-05T22:13:40.918Z,52.50
2018-06-05T22:16:08.609Z,52.40
2018-06-05T22:18:36.265Z,52.60
2018-06-05T22:21:03.954Z,52.80
2018-06-05T22:23:31.660Z,53.00
2018-06-05T22:25:59.321Z,53.20
2018-06-05T22:28:26.969Z,53.60
2018-06-05T22:30:54.645Z,53.70
2018-06-05T22:33:22.326Z,53.70
2018-06-05T22:35:50.001Z,53.70
2018-06-05T22:38:17.669Z,53.80
2018-06-05T22:40:45.325Z,53.80
2018-06-05T22:43:13.844Z,53.50
2018-06-05T22:45:41.481Z,53.70
2018-06-05T22:48:09.187Z,54.30
2018-06-05T22:50:36.893Z,54.60
2018-06-05T22:53:04.743Z,54.70
2018-06-05T22:55:33.258Z,54.90
2018-06-05T22:58:00.943Z,55.00
2018-06-05T23:00:31.881Z,55.60
2018-06-05T23:02:59.577Z,56.00
2018-06-05T23:05:27.328Z,55.20
2018-06-05T23:07:55.011Z,55.70
2018-06-05T23:10:22.685Z,55.20
2018-06-05T23:15:18.164Z,56.60
2018-06-05T23:17:45.847Z,56.70
2018-06-05T23:20:13.506Z,56.70
2018-06-05T23:22:41.195Z,56.80
2018-06-05T23:25:08.899Z,57.00
2018-06-05T23:27:36.574Z,57.20
2018-06-05T23:30:04.351Z,57.70
2018-06-05T23:32:32.034Z,57.90
2018-06-05T23:34:59.706Z,58.10
2018-06-05T23:37:27.357Z,57.70
2018-06-05T23:39:54.997Z,57.90
2018-06-05T23:42:22.723Z,58.00
2018-06-05T23:44:50.369Z,57.70
2018-06-05T23:47:18.049Z,57.80
2018-06-05T23:49:45.721Z,57.90
2018-06-05T23:52:13.399Z,57.80
2018-06-05T23:54:41.084Z,57.90
2018-06-05T23:57:09.471Z,57.50
2018-06-05T23:59:37.133Z,57.20
